sensor_id;sensor_type;location;lat;lon;timestamp;pressure;altitude;pressure_sealevel;temperature;humidity
72636;BME280;60679;48.888;15.544;2023-05-22T00:00:10;96137.25;;;11.84;60.42
72636;BME280;60679;48.888;15.544;2023-05-22T00:02:37;96133.50;;;11.85;60.45
72636;BME280;60679;48.888;15.544;2023-05-22T00:05:08;96131.63;;;11.85;60.51
72636;BME280;60679;48.888;15.544;2023-05-22T00:07:35;96128.66;;;11.87;60.58
72636;BME280;60679;48.888;15.544;2023-05-22T00:10:00;96127.72;;;11.81;60.65
72636;BME280;60679;48.888;15.544;2023-05-22T00:12:25;96134.91;;;11.76;60.67
72636;BME280;60679;48.888;15.544;2023-05-22T00:14:51;96136.78;;;11.75;60.86
72636;BME280;60679;48.888;15.544;2023-05-22T00:17:17;96128.31;;;11.72;60.59
72636;BME280;60679;48.888;15.544;2023-05-22T00:19:45;96130.22;;;11.71;60.92
72636;BME280;60679;48.888;15.544;2023-05-22T00:22:14;96120.44;;;11.70;60.70
72636;BME280;60679;48.888;15.544;2023-05-22T00:24:39;96127.94;;;11.68;61.04
72636;BME280;60679;48.888;15.544;2023-05-22T00:27:05;96123.56;;;11.67;60.98
72636;BME280;60679;48.888;15.544;2023-05-22T00:29:30;96114.06;;;11.65;60.88
72636;BME280;60679;48.888;15.544;2023-05-22T00:31:56;96120.75;;;11.62;61.20
72636;BME280;60679;48.888;15.544;2023-05-22T00:34:21;96120.63;;;11.57;61.07
72636;BME280;60679;48.888;15.544;2023-05-22T00:36:46;96124.03;;;11.52;61.31
72636;BME280;60679;48.888;15.544;2023-05-22T00:39:12;96117.31;;;11.55;61.58
72636;BME280;60679;48.888;15.544;2023-05-22T00:41:37;96119.44;;;11.53;61.44
72636;BME280;60679;48.888;15.544;2023-05-22T00:44:03;96123.66;;;11.49;61.38
72636;BME280;60679;48.888;15.544;2023-05-22T00:46:28;96123.78;;;11.42;61.63
72636;BME280;60679;48.888;15.544;2023-05-22T00:48:54;96116.81;;;11.35;61.71
72636;BME280;60679;48.888;15.544;2023-05-22T00:51:23;96119.28;;;11.25;61.68
72636;BME280;60679;48.888;15.544;2023-05-22T00:53:49;96119.59;;;11.17;61.83
72636;BME280;60679;48.888;15.544;2023-05-22T00:56:15;96119.81;;;11.15;62.04
72636;BME280;60679;48.888;15.544;2023-05-22T00:58:41;96124.88;;;11.12;61.87
72636;BME280;60679;48.888;15.544;2023-05-22T01:01:08;96121.81;;;11.08;62.04
72636;BME280;60679;48.888;15.544;2023-05-22T01:03:37;96122.03;;;11.07;62.18
72636;BME280;60679;48.888;15.544;2023-05-22T01:06:06;96108.88;;;11.10;62.08
72636;BME280;60679;48.888;15.544;2023-05-22T01:08:35;96110.09;;;11.14;62.23
72636;BME280;60679;48.888;15.544;2023-05-22T01:11:04;96114.41;;;11.15;62.13
72636;BME280;60679;48.888;15.544;2023-05-22T01:14:17;96115.50;;;11.14;62.40
72636;BME280;60679;48.888;15.544;2023-05-22T01:17:22;96114.88;;;11.12;62.61
72636;BME280;60679;48.888;15.544;2023-05-22T01:20:11;96117.69;;;11.06;62.35
72636;BME280;60679;48.888;15.544;2023-05-22T01:31:47;96117.72;;;10.87;62.67
72636;BME280;60679;48.888;15.544;2023-05-22T01:34:15;96121.03;;;10.89;62.64
72636;BME280;60679;48.888;15.544;2023-05-22T01:36:44;96123.38;;;10.86;62.82
72636;BME280;60679;48.888;15.544;2023-05-22T01:39:11;96124.66;;;10.83;62.77
72636;BME280;60679;48.888;15.544;2023-05-22T01:41:37;96123.25;;;10.81;62.89
72636;BME280;60679;48.888;15.544;2023-05-22T01:44:04;96122.88;;;10.77;62.92
72636;BME280;60679;48.888;15.544;2023-05-22T01:46:30;96130.34;;;10.75;62.92
72636;BME280;60679;48.888;15.544;2023-05-22T01:48:56;96121.47;;;10.75;62.83
72636;BME280;60679;48.888;15.544;2023-05-22T01:54:03;96122.25;;;10.75;63.26
72636;BME280;60679;48.888;15.544;2023-05-22T01:59:53;96126.56;;;10.65;63.40
72636;BME280;60679;48.888;15.544;2023-05-22T02:02:22;96126.19;;;10.61;63.13
72636;BME280;60679;48.888;15.544;2023-05-22T02:04:52;96120.63;;;10.56;63.34
72636;BME280;60679;48.888;15.544;2023-05-22T02:07:21;96124.88;;;10.52;63.47
72636;BME280;60679;48.888;15.544;2023-05-22T02:09:50;96118.25;;;10.48;63.50
72636;BME280;60679;48.888;15.544;2023-05-22T02:12:21;96117.66;;;10.46;63.50
72636;BME280;60679;48.888;15.544;2023-05-22T02:14:47;96114.91;;;10.53;63.56
72636;BME280;60679;48.888;15.544;2023-05-22T02:17:13;96115.88;;;10.58;63.58
72636;BME280;60679;48.888;15.544;2023-05-22T02:19:39;96118.56;;;10.58;63.56
72636;BME280;60679;48.888;15.544;2023-05-22T02:22:04;96116.53;;;10.54;63.50
72636;BME280;60679;48.888;15.544;2023-05-22T02:24:31;96106.28;;;10.44;63.51
72636;BME280;60679;48.888;15.544;2023-05-22T02:26:56;96105.31;;;10.38;63.74
72636;BME280;60679;48.888;15.544;2023-05-22T02:29:22;96099.28;;;10.36;63.79
72636;BME280;60679;48.888;15.544;2023-05-22T02:31:48;96105.53;;;10.37;63.70
72636;BME280;60679;48.888;15.544;2023-05-22T02:34:13;96095.56;;;10.37;64.06
72636;BME280;60679;48.888;15.544;2023-05-22T02:36:39;96097.22;;;10.38;63.87
72636;BME280;60679;48.888;15.544;2023-05-22T02:39:05;96099.16;;;10.31;63.73
72636;BME280;60679;48.888;15.544;2023-05-22T02:41:30;96088.88;;;10.22;64.10
72636;BME280;60679;48.888;15.544;2023-05-22T02:43:56;96091.81;;;10.20;63.94
72636;BME280;60679;48.888;15.544;2023-05-22T02:46:21;96096.00;;;10.16;64.12
72636;BME280;60679;48.888;15.544;2023-05-22T02:48:47;96086.88;;;10.17;64.06
72636;BME280;60679;48.888;15.544;2023-05-22T02:51:12;96094.91;;;10.24;64.07
72636;BME280;60679;48.888;15.544;2023-05-22T02:53:39;96092.78;;;10.26;64.16
72636;BME280;60679;48.888;15.544;2023-05-22T02:56:08;96094.44;;;10.27;64.16
72636;BME280;60679;48.888;15.544;2023-05-22T02:58:38;96091.97;;;10.25;64.27
72636;BME280;60679;48.888;15.544;2023-05-22T03:01:04;96095.72;;;10.24;63.90
72636;BME280;60679;48.888;15.544;2023-05-22T03:03:31;96086.94;;;10.29;64.43
72636;BME280;60679;48.888;15.544;2023-05-22T03:05:58;96095.50;;;10.26;64.41
72636;BME280;60679;48.888;15.544;2023-05-22T03:08:26;96092.31;;;10.11;64.30
72636;BME280;60679;48.888;15.544;2023-05-22T03:10:52;96092.59;;;10.03;64.35
72636;BME280;60679;48.888;15.544;2023-05-22T03:13:18;96094.72;;;10.01;64.30
72636;BME280;60679;48.888;15.544;2023-05-22T03:15:43;96093.28;;;9.98;64.27
72636;BME280;60679;48.888;15.544;2023-05-22T03:18:09;96093.50;;;9.97;64.53
72636;BME280;60679;48.888;15.544;2023-05-22T03:20:34;96092.22;;;9.99;64.55
72636;BME280;60679;48.888;15.544;2023-05-22T03:23:00;96085.34;;;10.03;64.35
72636;BME280;60679;48.888;15.544;2023-05-22T03:25:25;96084.50;;;10.03;64.48
72636;BME280;60679;48.888;15.544;2023-05-22T03:27:51;96091.19;;;10.00;64.47
72636;BME280;60679;48.888;15.544;2023-05-22T03:30:16;96095.75;;;10.00;64.34
72636;BME280;60679;48.888;15.544;2023-05-22T03:32:42;96099.88;;;10.02;64.38
72636;BME280;60679;48.888;15.544;2023-05-22T03:35:08;96083.47;;;10.04;64.56
72636;BME280;60679;48.888;15.544;2023-05-22T03:37:33;96085.28;;;10.10;64.21
72636;BME280;60679;48.888;15.544;2023-05-22T03:39:59;96077.78;;;10.12;64.38
72636;BME280;60679;48.888;15.544;2023-05-22T03:42:24;96086.28;;;10.15;64.48
72636;BME280;60679;48.888;15.544;2023-05-22T03:44:50;96087.00;;;10.22;64.20
72636;BME280;60679;48.888;15.544;2023-05-22T03:47:15;96071.06;;;10.21;64.28
72636;BME280;60679;48.888;15.544;2023-05-22T03:49:41;96067.09;;;10.23;64.20
72636;BME280;60679;48.888;15.544;2023-05-22T03:52:08;96077.19;;;10.28;64.13
72636;BME280;60679;48.888;15.544;2023-05-22T03:54:34;96074.41;;;10.34;64.41
72636;BME280;60679;48.888;15.544;2023-05-22T03:57:00;96072.91;;;10.38;64.07
72636;BME280;60679;48.888;15.544;2023-05-22T03:59:25;96074.69;;;10.44;64.22
72636;BME280;60679;48.888;15.544;2023-05-22T04:01:51;96075.19;;;10.53;64.19
72636;BME280;60679;48.888;15.544;2023-05-22T04:04:16;96079.03;;;10.64;64.14
72636;BME280;60679;48.888;15.544;2023-05-22T04:06:41;96075.16;;;10.71;64.00
72636;BME280;60679;48.888;15.544;2023-05-22T04:09:11;96067.69;;;10.85;64.19
72636;BME280;60679;48.888;15.544;2023-05-22T04:11:37;96064.78;;;10.98;64.03
72636;BME280;60679;48.888;15.544;2023-05-22T04:14:07;96069.44;;;11.09;64.07
72636;BME280;60679;48.888;15.544;2023-05-22T04:16:33;96070.38;;;11.15;63.89
72636;BME280;60679;48.888;15.544;2023-05-22T04:18:58;96074.03;;;11.20;64.03
72636;BME280;60679;48.888;15.544;2023-05-22T04:21:26;96075.09;;;11.31;63.81
72636;BME280;60679;48.888;15.544;2023-05-22T04:23:52;96072.41;;;11.42;63.97
72636;BME280;60679;48.888;15.544;2023-05-22T04:26:18;96076.19;;;11.53;63.70
72636;BME280;60679;48.888;15.544;2023-05-22T04:28:48;96080.19;;;11.62;63.66
72636;BME280;60679;48.888;15.544;2023-05-22T04:31:13;96076.53;;;11.68;63.57
72636;BME280;60679;48.888;15.544;2023-05-22T04:33:39;96071.03;;;11.75;63.58
72636;BME280;60679;48.888;15.544;2023-05-22T04:36:05;96070.19;;;11.86;63.62
72636;BME280;60679;48.888;15.544;2023-05-22T04:38:31;96073.63;;;11.93;63.59
72636;BME280;60679;48.888;15.544;2023-05-22T04:41:01;96071.38;;;12.01;63.68
72636;BME280;60679;48.888;15.544;2023-05-22T04:43:27;96065.34;;;12.11;63.54
72636;BME280;60679;48.888;15.544;2023-05-22T04:45:54;96065.09;;;12.24;63.51
72636;BME280;60679;48.888;15.544;2023-05-22T04:48:21;96063.78;;;12.38;63.55
72636;BME280;60679;48.888;15.544;2023-05-22T04:50:48;96063.84;;;12.55;63.41
72636;BME280;60679;48.888;15.544;2023-05-22T04:53:14;96066.09;;;12.74;63.53
72636;BME280;60679;48.888;15.544;2023-05-22T04:55:40;96071.00;;;12.89;63.65
72636;BME280;60679;48.888;15.544;2023-05-22T04:58:05;96067.50;;;13.05;63.35
72636;BME280;60679;48.888;15.544;2023-05-22T05:00:31;96060.72;;;13.19;63.28
72636;BME280;60679;48.888;15.544;2023-05-22T05:02:56;96060.66;;;13.31;63.35
72636;BME280;60679;48.888;15.544;2023-05-22T05:05:21;96072.25;;;13.43;63.20
72636;BME280;60679;48.888;15.544;2023-05-22T05:07:48;96067.56;;;13.55;63.34
72636;BME280;60679;48.888;15.544;2023-05-22T05:10:14;96077.00;;;13.69;63.50
72636;BME280;60679;48.888;15.544;2023-05-22T05:12:40;96082.13;;;13.82;63.17
72636;BME280;60679;48.888;15.544;2023-05-22T05:15:06;96079.03;;;13.96;63.16
72636;BME280;60679;48.888;15.544;2023-05-22T05:17:32;96081.16;;;14.10;63.17
72636;BME280;60679;48.888;15.544;2023-05-22T05:19:57;96081.63;;;14.24;62.93
72636;BME280;60679;48.888;15.544;2023-05-22T05:22:23;96081.03;;;14.38;63.13
72636;BME280;60679;48.888;15.544;2023-05-22T05:24:48;96080.41;;;14.53;63.00
72636;BME280;60679;48.888;15.544;2023-05-22T05:27:14;96081.66;;;14.67;62.79
72636;BME280;60679;48.888;15.544;2023-05-22T05:29:39;96078.81;;;14.79;62.74
72636;BME280;60679;48.888;15.544;2023-05-22T05:32:08;96076.25;;;14.94;62.67
72636;BME280;60679;48.888;15.544;2023-05-22T05:34:35;96079.66;;;15.06;62.69
72636;BME280;60679;48.888;15.544;2023-05-22T05:37:01;96085.50;;;15.20;62.51
72636;BME280;60679;48.888;15.544;2023-05-22T05:39:27;96076.34;;;15.31;62.36
72636;BME280;60679;48.888;15.544;2023-05-22T05:41:55;96078.09;;;15.42;62.21
72636;BME280;60679;48.888;15.544;2023-05-22T05:44:20;96081.19;;;15.50;62.20
72636;BME280;60679;48.888;15.544;2023-05-22T05:46:46;96080.72;;;15.58;62.12
72636;BME280;60679;48.888;15.544;2023-05-22T05:49:14;96084.03;;;15.66;61.99
72636;BME280;60679;48.888;15.544;2023-05-22T05:51:40;96084.91;;;15.71;61.77
72636;BME280;60679;48.888;15.544;2023-05-22T05:54:05;96083.59;;;15.79;61.96
72636;BME280;60679;48.888;15.544;2023-05-22T05:56:31;96076.84;;;15.86;61.84
72636;BME280;60679;48.888;15.544;2023-05-22T05:58:56;96078.00;;;15.95;61.78
72636;BME280;60679;48.888;15.544;2023-05-22T06:01:24;96087.06;;;16.06;61.66
72636;BME280;60679;48.888;15.544;2023-05-22T06:03:50;96086.31;;;16.15;61.72
72636;BME280;60679;48.888;15.544;2023-05-22T06:06:16;96090.72;;;16.27;61.50
72636;BME280;60679;48.888;15.544;2023-05-22T06:08:42;96091.91;;;16.41;61.30
72636;BME280;60679;48.888;15.544;2023-05-22T06:11:08;96083.22;;;16.49;61.04
72636;BME280;60679;48.888;15.544;2023-05-22T06:13:33;96085.75;;;16.55;61.18
72636;BME280;60679;48.888;15.544;2023-05-22T06:15:59;96083.56;;;16.62;60.99
72636;BME280;60679;48.888;15.544;2023-05-22T06:18:24;96082.28;;;16.70;60.95
72636;BME280;60679;48.888;15.544;2023-05-22T06:20:50;96081.50;;;16.85;60.88
72636;BME280;60679;48.888;15.544;2023-05-22T06:23:16;96083.19;;;16.96;60.66
72636;BME280;60679;48.888;15.544;2023-05-22T06:25:42;96080.47;;;17.06;60.58
72636;BME280;60679;48.888;15.544;2023-05-22T06:28:07;96069.31;;;17.12;60.63
72636;BME280;60679;48.888;15.544;2023-05-22T06:30:34;96067.13;;;17.24;60.59
72636;BME280;60679;48.888;15.544;2023-05-22T06:32:59;96073.44;;;17.40;60.26
72636;BME280;60679;48.888;15.544;2023-05-22T06:35:25;96082.78;;;17.54;60.11
72636;BME280;60679;48.888;15.544;2023-05-22T06:37:50;96082.78;;;17.69;60.11
72636;BME280;60679;48.888;15.544;2023-05-22T06:40:16;96078.44;;;17.83;60.14
72636;BME280;60679;48.888;15.544;2023-05-22T06:42:43;96083.06;;;17.88;60.01
72636;BME280;60679;48.888;15.544;2023-05-22T06:45:09;96075.69;;;17.94;59.76
72636;BME280;60679;48.888;15.544;2023-05-22T06:47:34;96074.28;;;18.01;59.77
72636;BME280;60679;48.888;15.544;2023-05-22T06:50:00;96084.66;;;18.09;59.85
72636;BME280;60679;48.888;15.544;2023-05-22T06:52:26;96088.47;;;18.23;59.55
72636;BME280;60679;48.888;15.544;2023-05-22T06:54:51;96090.34;;;18.38;59.20
72636;BME280;60679;48.888;15.544;2023-05-22T06:57:17;96085.44;;;18.40;59.36
72636;BME280;60679;48.888;15.544;2023-05-22T06:59:42;96094.47;;;18.45;59.18
72636;BME280;60679;48.888;15.544;2023-05-22T07:02:08;96093.91;;;18.54;59.45
72636;BME280;60679;48.888;15.544;2023-05-22T07:04:33;96091.69;;;18.61;58.91
72636;BME280;60679;48.888;15.544;2023-05-22T07:06:59;96090.56;;;18.72;59.03
72636;BME280;60679;48.888;15.544;2023-05-22T07:09:25;96086.97;;;18.81;58.92
72636;BME280;60679;48.888;15.544;2023-05-22T07:11:50;96080.94;;;18.84;58.81
72636;BME280;60679;48.888;15.544;2023-05-22T07:14:16;96083.09;;;18.92;58.48
72636;BME280;60679;48.888;15.544;2023-05-22T07:16:42;96090.16;;;19.03;58.65
72636;BME280;60679;48.888;15.544;2023-05-22T07:19:07;96086.53;;;19.18;58.61
72636;BME280;60679;48.888;15.544;2023-05-22T07:21:34;96089.19;;;19.33;58.33
72636;BME280;60679;48.888;15.544;2023-05-22T07:24:01;96079.53;;;19.46;58.16
72636;BME280;60679;48.888;15.544;2023-05-22T07:26:35;96079.44;;;19.61;58.25
72636;BME280;60679;48.888;15.544;2023-05-22T07:29:01;96073.88;;;19.71;57.90
72636;BME280;60679;48.888;15.544;2023-05-22T07:31:27;96074.34;;;19.83;57.84
72636;BME280;60679;48.888;15.544;2023-05-22T07:33:52;96072.31;;;19.94;57.78
72636;BME280;60679;48.888;15.544;2023-05-22T07:36:18;96072.75;;;20.06;57.45
72636;BME280;60679;48.888;15.544;2023-05-22T07:38:45;96079.72;;;20.27;57.37
72636;BME280;60679;48.888;15.544;2023-05-22T07:41:10;96073.78;;;20.44;57.36
72636;BME280;60679;48.888;15.544;2023-05-22T07:43:36;96071.47;;;20.56;57.13
72636;BME280;60679;48.888;15.544;2023-05-22T07:46:02;96068.25;;;20.72;57.08
72636;BME280;60679;48.888;15.544;2023-05-22T07:48:30;96071.16;;;20.81;56.83
72636;BME280;60679;48.888;15.544;2023-05-22T07:50:55;96062.81;;;20.91;56.53
72636;BME280;60679;48.888;15.544;2023-05-22T07:53:21;96068.75;;;20.98;56.86
72636;BME280;60679;48.888;15.544;2023-05-22T07:55:46;96058.47;;;21.09;56.23
72636;BME280;60679;48.888;15.544;2023-05-22T07:58:12;96063.47;;;21.25;56.02
72636;BME280;60679;48.888;15.544;2023-05-22T08:00:37;96063.41;;;21.49;55.75
72636;BME280;60679;48.888;15.544;2023-05-22T08:03:03;96060.34;;;21.69;55.42
72636;BME280;60679;48.888;15.544;2023-05-22T08:05:28;96069.72;;;21.87;54.98
72636;BME280;60679;48.888;15.544;2023-05-22T08:07:54;96063.44;;;22.00;54.72
72636;BME280;60679;48.888;15.544;2023-05-22T08:10:19;96063.19;;;22.15;54.66
72636;BME280;60679;48.888;15.544;2023-05-22T08:12:45;96061.31;;;22.43;54.38
72636;BME280;60679;48.888;15.544;2023-05-22T08:15:10;96061.53;;;22.60;53.75
72636;BME280;60679;48.888;15.544;2023-05-22T08:17:36;96063.16;;;22.61;53.84
72636;BME280;60679;48.888;15.544;2023-05-22T08:20:02;96058.09;;;22.68;53.67
72636;BME280;60679;48.888;15.544;2023-05-22T08:22:29;96065.84;;;22.80;53.42
72636;BME280;60679;48.888;15.544;2023-05-22T08:24:55;96058.59;;;22.97;53.37
72636;BME280;60679;48.888;15.544;2023-05-22T08:27:21;96058.69;;;23.06;52.81
72636;BME280;60679;48.888;15.544;2023-05-22T08:29:46;96056.63;;;23.25;52.79
72636;BME280;60679;48.888;15.544;2023-05-22T08:32:12;96058.25;;;23.40;52.58
72636;BME280;60679;48.888;15.544;2023-05-22T08:34:37;96052.03;;;23.48;52.08
72636;BME280;60679;48.888;15.544;2023-05-22T08:37:04;96050.19;;;23.66;51.61
72636;BME280;60679;48.888;15.544;2023-05-22T08:39:31;96047.34;;;23.93;51.59
72636;BME280;60679;48.888;15.544;2023-05-22T08:41:56;96047.72;;;24.22;50.96
72636;BME280;60679;48.888;15.544;2023-05-22T08:44:23;96046.31;;;24.55;50.82
72636;BME280;60679;48.888;15.544;2023-05-22T08:46:50;96048.81;;;25.13;50.09
72636;BME280;60679;48.888;15.544;2023-05-22T08:49:16;96045.81;;;25.49;49.53
72636;BME280;60679;48.888;15.544;2023-05-22T08:51:46;96043.22;;;25.70;49.15
72636;BME280;60679;48.888;15.544;2023-05-22T08:54:14;96038.81;;;25.95;48.93
72636;BME280;60679;48.888;15.544;2023-05-22T08:56:42;96036.63;;;26.52;48.12
72636;BME280;60679;48.888;15.544;2023-05-22T08:59:11;96039.44;;;27.89;45.84
72636;BME280;60679;48.888;15.544;2023-05-22T09:01:36;96036.47;;;30.05;41.94
72636;BME280;60679;48.888;15.544;2023-05-22T09:04:02;96031.09;;;31.81;39.07
72636;BME280;60679;48.888;15.544;2023-05-22T09:06:31;96033.66;;;33.57;36.55
72636;BME280;60679;48.888;15.544;2023-05-22T09:08:58;96026.72;;;35.03;34.96
72636;BME280;60679;48.888;15.544;2023-05-22T09:11:26;96024.91;;;36.41;33.27
72636;BME280;60679;48.888;15.544;2023-05-22T09:13:51;96019.47;;;37.72;32.33
72636;BME280;60679;48.888;15.544;2023-05-22T09:16:18;96027.75;;;38.53;31.18
72636;BME280;60679;48.888;15.544;2023-05-22T09:18:43;96022.91;;;39.26;30.55
72636;BME280;60679;48.888;15.544;2023-05-22T09:21:10;96025.88;;;40.01;29.36
72636;BME280;60679;48.888;15.544;2023-05-22T09:23:36;96024.50;;;40.53;28.67
72636;BME280;60679;48.888;15.544;2023-05-22T09:26:02;96025.22;;;41.18;27.92
72636;BME280;60679;48.888;15.544;2023-05-22T09:28:35;96020.06;;;41.86;27.41
72636;BME280;60679;48.888;15.544;2023-05-22T09:31:04;96013.91;;;42.11;26.89
72636;BME280;60679;48.888;15.544;2023-05-22T09:33:30;96021.09;;;42.78;26.63
72636;BME280;60679;48.888;15.544;2023-05-22T09:35:57;96017.91;;;43.11;26.38
72636;BME280;60679;48.888;15.544;2023-05-22T09:38:26;96015.00;;;43.96;25.56
72636;BME280;60679;48.888;15.544;2023-05-22T09:40:52;96023.28;;;44.35;24.92
72636;BME280;60679;48.888;15.544;2023-05-22T09:43:20;96030.13;;;44.54;24.51
72636;BME280;60679;48.888;15.544;2023-05-22T09:45:46;96019.69;;;45.30;23.42
72636;BME280;60679;48.888;15.544;2023-05-22T09:48:15;96018.47;;;45.91;22.97
72636;BME280;60679;48.888;15.544;2023-05-22T09:50:46;96012.97;;;46.09;22.87
72636;BME280;60679;48.888;15.544;2023-05-22T09:53:15;96016.59;;;46.43;22.22
72636;BME280;60679;48.888;15.544;2023-05-22T09:55:40;96007.75;;;46.51;22.08
72636;BME280;60679;48.888;15.544;2023-05-22T09:58:09;96007.84;;;46.81;21.65
72636;BME280;60679;48.888;15.544;2023-05-22T10:00:37;96007.81;;;47.43;21.06
72636;BME280;60679;48.888;15.544;2023-05-22T10:03:10;95996.28;;;48.32;20.40
72636;BME280;60679;48.888;15.544;2023-05-22T10:05:44;96006.28;;;44.89;23.41
72636;BME280;60679;48.888;15.544;2023-05-22T10:08:20;95999.47;;;47.58;20.77
72636;BME280;60679;48.888;15.544;2023-05-22T10:10:50;96001.22;;;45.81;22.51
72636;BME280;60679;48.888;15.544;2023-05-22T10:13:20;95994.56;;;47.76;20.65
72636;BME280;60679;48.888;15.544;2023-05-22T10:15:46;95994.75;;;47.33;21.27
72636;BME280;60679;48.888;15.544;2023-05-22T10:18:14;95992.59;;;44.27;24.10
72636;BME280;60679;48.888;15.544;2023-05-22T10:20:40;95986.97;;;48.82;19.77
72636;BME280;60679;48.888;15.544;2023-05-22T10:23:06;95982.94;;;50.29;18.72
72636;BME280;60679;48.888;15.544;2023-05-22T10:25:38;95984.13;;;49.99;18.54
72636;BME280;60679;48.888;15.544;2023-05-22T10:28:05;95986.38;;;51.45;17.50
72636;BME280;60679;48.888;15.544;2023-05-22T10:31:02;95980.22;;;51.86;17.43
72636;BME280;60679;48.888;15.544;2023-05-22T10:33:43;95981.28;;;51.89;17.55
72636;BME280;60679;48.888;15.544;2023-05-22T10:36:33;95974.09;;;49.94;17.93
72636;BME280;60679;48.888;15.544;2023-05-22T10:42:11;95986.91;;;50.99;17.47
72636;BME280;60679;48.888;15.544;2023-05-22T10:44:37;95977.03;;;51.84;16.73
72636;BME280;60679;48.888;15.544;2023-05-22T10:47:10;95967.66;;;52.96;15.80
72636;BME280;60679;48.888;15.544;2023-05-22T10:49:42;95968.44;;;53.59;15.26
72636;BME280;60679;48.888;15.544;2023-05-22T10:52:08;95959.06;;;53.07;15.58
72636;BME280;60679;48.888;15.544;2023-05-22T10:54:42;95969.34;;;53.39;14.87
72636;BME280;60679;48.888;15.544;2023-05-22T10:57:15;95964.34;;;53.71;15.03
72636;BME280;60679;48.888;15.544;2023-05-22T10:59:42;95957.84;;;53.87;14.65
72636;BME280;60679;48.888;15.544;2023-05-22T11:02:24;95959.94;;;53.87;14.16
72636;BME280;60679;48.888;15.544;2023-05-22T11:07:50;95953.72;;;54.81;13.76
72636;BME280;60679;48.888;15.544;2023-05-22T11:10:26;95949.56;;;55.43;13.60
72636;BME280;60679;48.888;15.544;2023-05-22T11:13:10;95948.25;;;55.60;13.31
72636;BME280;60679;48.888;15.544;2023-05-22T11:15:43;95945.78;;;55.98;13.20
72636;BME280;60679;48.888;15.544;2023-05-22T11:18:10;95940.56;;;55.68;12.93
72636;BME280;60679;48.888;15.544;2023-05-22T11:20:37;95950.03;;;55.91;12.89
72636;BME280;60679;48.888;15.544;2023-05-22T11:23:05;95936.63;;;55.66;13.01
72636;BME280;60679;48.888;15.544;2023-05-22T11:25:35;95938.94;;;55.90;12.80
72636;BME280;60679;48.888;15.544;2023-05-22T11:28:02;95935.06;;;55.54;12.86
72636;BME280;60679;48.888;15.544;2023-05-22T11:30:28;95934.31;;;54.11;14.02
72636;BME280;60679;48.888;15.544;2023-05-22T11:32:58;95922.19;;;55.16;13.05
72636;BME280;60679;48.888;15.544;2023-05-22T11:35:25;95921.03;;;55.86;12.72
72636;BME280;60679;48.888;15.544;2023-05-22T11:37:54;95918.44;;;53.90;13.28
72636;BME280;60679;48.888;15.544;2023-05-22T11:40:21;95918.16;;;52.57;13.79
72636;BME280;60679;48.888;15.544;2023-05-22T11:42:48;95913.66;;;49.80;15.62
72636;BME280;60679;48.888;15.544;2023-05-22T11:45:14;95907.78;;;51.09;14.46
72636;BME280;60679;48.888;15.544;2023-05-22T11:47:39;95916.25;;;53.37;12.64
72636;BME280;60679;48.888;15.544;2023-05-22T11:50:10;95907.41;;;55.47;11.95
72636;BME280;60679;48.888;15.544;2023-05-22T11:52:38;95919.78;;;56.39;11.35
72636;BME280;60679;48.888;15.544;2023-05-22T11:55:04;95905.75;;;57.19;10.96
72636;BME280;60679;48.888;15.544;2023-05-22T11:57:30;95907.44;;;57.39;10.95
72636;BME280;60679;48.888;15.544;2023-05-22T11:59:57;95904.09;;;56.99;10.88
72636;BME280;60679;48.888;15.544;2023-05-22T12:02:23;95906.03;;;57.15;10.83
72636;BME280;60679;48.888;15.544;2023-05-22T12:04:55;95904.97;;;57.72;10.51
72636;BME280;60679;48.888;15.544;2023-05-22T12:07:22;95898.13;;;57.94;10.49
72636;BME280;60679;48.888;15.544;2023-05-22T12:09:47;95902.25;;;58.23;10.42
72636;BME280;60679;48.888;15.544;2023-05-22T12:12:14;95896.44;;;58.60;10.05
72636;BME280;60679;48.888;15.544;2023-05-22T12:14:43;95903.50;;;58.83;9.75
72636;BME280;60679;48.888;15.544;2023-05-22T12:17:15;95898.19;;;59.01;9.79
72636;BME280;60679;48.888;15.544;2023-05-22T12:19:42;95891.16;;;59.54;9.59
72636;BME280;60679;48.888;15.544;2023-05-22T12:22:08;95894.19;;;59.48;9.63
72636;BME280;60679;48.888;15.544;2023-05-22T12:24:44;95886.44;;;58.74;9.79
72636;BME280;60679;48.888;15.544;2023-05-22T12:27:13;95883.22;;;59.23;9.36
72636;BME280;60679;48.888;15.544;2023-05-22T12:29:40;95881.88;;;59.82;9.09
72636;BME280;60679;48.888;15.544;2023-05-22T12:32:07;95894.78;;;59.99;9.20
72636;BME280;60679;48.888;15.544;2023-05-22T12:34:40;95882.19;;;59.65;9.26
72636;BME280;60679;48.888;15.544;2023-05-22T12:37:17;95886.38;;;60.09;8.98
72636;BME280;60679;48.888;15.544;2023-05-22T12:39:55;95872.09;;;56.64;11.13
72636;BME280;60679;48.888;15.544;2023-05-22T12:42:20;95868.31;;;56.74;10.54
72636;BME280;60679;48.888;15.544;2023-05-22T12:44:46;95865.41;;;58.63;9.40
72636;BME280;60679;48.888;15.544;2023-05-22T12:47:11;95873.44;;;59.39;9.04
72636;BME280;60679;48.888;15.544;2023-05-22T12:49:37;95872.44;;;59.89;8.80
72636;BME280;60679;48.888;15.544;2023-05-22T12:52:02;95877.59;;;60.22;8.32
72636;BME280;60679;48.888;15.544;2023-05-22T12:54:27;95888.28;;;59.93;8.67
72636;BME280;60679;48.888;15.544;2023-05-22T12:56:53;95871.91;;;58.87;8.85
72636;BME280;60679;48.888;15.544;2023-05-22T12:59:18;95865.03;;;58.53;8.96
72636;BME280;60679;48.888;15.544;2023-05-22T13:01:43;95860.94;;;58.62;8.87
72636;BME280;60679;48.888;15.544;2023-05-22T13:04:09;95855.94;;;59.52;8.63
72636;BME280;60679;48.888;15.544;2023-05-22T13:06:34;95850.47;;;59.62;8.23
72636;BME280;60679;48.888;15.544;2023-05-22T13:09:00;95861.09;;;60.12;8.28
72636;BME280;60679;48.888;15.544;2023-05-22T13:11:25;95852.75;;;60.29;8.04